createdAt,value
2017-10-12T00:00:20.211Z,36.2
2017-10-12T00:01:20.320Z,36.2
2017-10-12T00:02:20.233Z,36.2
2017-10-12T00:03:20.438Z,36.2
2017-10-12T00:04:20.329Z,36.2
2017-10-12T00:05:20.514Z,36.2
2017-10-12T00:06:20.406Z,36.2
2017-10-12T00:07:20.430Z,36.2
2017-10-12T00:08:20.631Z,36.2
2017-10-12T00:09:20.681Z,36.2
2017-10-12T00:10:20.610Z,36.2
2017-10-12T00:11:20.811Z,36.2
2017-10-12T00:12:20.865Z,36.2
2017-10-12T00:13:20.755Z,36.2
2017-10-12T00:14:20.969Z,36.3
2017-10-12T00:15:21.025Z,36.2
2017-10-12T00:16:21.117Z,36.2
2017-10-12T00:17:21.026Z,36.2
2017-10-12T00:18:21.280Z,36.2
2017-10-12T00:19:21.217Z,36.2
2017-10-12T00:20:21.354Z,36.2
2017-10-12T00:21:21.398Z,36.2
2017-10-12T00:22:21.465Z,36.2
2017-10-12T00:23:21.470Z,36.2
2017-10-12T00:24:21.504Z,36.2
2017-10-12T00:25:21.398Z,36.2
2017-10-12T00:26:21.443Z,36.2
2017-10-12T00:27:21.540Z,36.2
2017-10-12T00:28:21.616Z,36.3
2017-10-12T00:29:21.735Z,36.3
2017-10-12T00:30:21.781Z,36.2
2017-10-12T00:31:21.755Z,36.2
2017-10-12T00:32:21.786Z,36.2
2017-10-12T00:33:21.681Z,36.2
2017-10-12T00:34:21.917Z,36.2
2017-10-12T00:35:21.923Z,36.2
2017-10-12T00:36:21.834Z,36.2
2017-10-12T00:37:22.126Z,36.2
2017-10-12T00:38:21.900Z,36.2
2017-10-12T00:39:21.909Z,36.2
2017-10-12T00:40:21.977Z,36.2
2017-10-12T00:41:22.042Z,36.2
2017-10-12T00:42:22.220Z,36.2
2017-10-12T00:43:22.316Z,36.2
2017-10-12T00:44:22.249Z,36.2
2017-10-12T00:45:22.419Z,36.2
2017-10-12T00:46:22.296Z,36.2
2017-10-12T00:47:22.354Z,36.2
2017-10-12T00:48:22.453Z,36.2
2017-10-12T00:49:22.641Z,36.2
2017-10-12T00:50:22.739Z,36.2
2017-10-12T00:51:22.664Z,36.2
2017-10-12T00:52:22.812Z,36.2
2017-10-12T00:53:22.711Z,36.2
2017-10-12T00:54:22.821Z,36.2
2017-10-12T00:55:22.927Z,36.2
2017-10-12T00:56:22.963Z,36.2
2017-10-12T00:57:23.080Z,36.2
2017-10-12T00:58:22.926Z,36.2
2017-10-12T00:59:23.014Z,36.2
2017-10-12T01:00:24.345Z,36.2
2017-10-12T01:01:23.229Z,36.2
2017-10-12T01:02:23.273Z,36.3
2017-10-12T01:03:23.334Z,36.3
2017-10-12T01:04:23.375Z,36.3
2017-10-12T01:05:23.462Z,36.2
2017-10-12T01:06:23.469Z,36.2
2017-10-12T01:07:23.352Z,36.3
2017-10-12T01:08:23.365Z,36.2
2017-10-12T01:09:23.404Z,36.3
2017-10-12T01:10:23.512Z,36.3
2017-10-12T01:11:23.498Z,36.3
2017-10-12T01:12:23.693Z,36.3
2017-10-12T01:13:23.668Z,36.2
2017-10-12T01:14:23.833Z,36.3
2017-10-12T01:15:23.832Z,36.3
2017-10-12T01:16:23.777Z,36.3
2017-10-12T01:17:23.811Z,36.3
2017-10-12T01:18:24.017Z,36.3
2017-10-12T01:19:23.942Z,36.3
2017-10-12T01:20:23.950Z,36.3
2017-10-12T01:21:24.132Z,36.3
2017-10-12T01:22:24.163Z,36.3
2017-10-12T01:23:24.179Z,36.3
2017-10-12T01:24:24.231Z,36.3
2017-10-12T01:25:24.331Z,36.3
2017-10-12T01:26:24.290Z,36.3
2017-10-12T01:27:24.323Z,36.2
2017-10-12T01:28:24.278Z,36.2
2017-10-12T01:29:24.424Z,36.3
2017-10-12T01:30:24.476Z,36.2
2017-10-12T01:31:24.528Z,36.3
2017-10-12T01:32:24.559Z,36.3
2017-10-12T01:33:24.506Z,36.3
2017-10-12T01:34:24.514Z,36.3
2017-10-12T01:35:24.729Z,36.3
2017-10-12T01:36:24.653Z,36.3
2017-10-12T01:37:24.796Z,36.3
2017-10-12T01:38:24.786Z,36.3
2017-10-12T01:39:24.739Z,36.2
2017-10-12T01:40:24.886Z,36.3
2017-10-12T01:41:25.063Z,36.3
2017-10-12T01:42:24.986Z,36.3
2017-10-12T01:43:25.069Z,36.3
2017-10-12T01:44:25.219Z,36.3
2017-10-12T01:45:25.278Z,36.3
2017-10-12T01:46:25.365Z,36.3
2017-10-12T01:47:25.248Z,36.3
2017-10-12T01:48:25.341Z,36.3
2017-10-12T01:49:25.381Z,36.3
2017-10-12T01:50:25.572Z,36.3
2017-10-12T01:51:25.660Z,36.3
2017-10-12T01:52:25.559Z,36.3
2017-10-12T01:53:25.580Z,36.3
2017-10-12T01:54:25.756Z,36.3
2017-10-12T01:55:25.799Z,36.3
2017-10-12T01:56:25.709Z,36.3
2017-10-12T01:57:25.943Z,36.3
2017-10-12T01:58:25.917Z,36.3
2017-10-12T01:59:25.927Z,36.3
2017-10-12T02:00:26.018Z,36.3
2017-10-12T02:01:26.041Z,36.3
2017-10-12T02:02:26.168Z,36.3
2017-10-12T02:03:26.079Z,36.3
2017-10-12T02:04:26.265Z,36.3
2017-10-12T02:05:26.201Z,36.3
2017-10-12T02:06:26.340Z,36.3
2017-10-12T02:07:26.212Z,36.3
2017-10-12T02:08:26.291Z,36.3
2017-10-12T02:09:26.480Z,36.3
2017-10-12T02:10:26.608Z,36.3
2017-10-12T02:11:26.656Z,36.3
2017-10-12T02:12:26.615Z,36.4
2017-10-12T02:13:26.859Z,36.4
2017-10-12T02:14:26.887Z,36.4
2017-10-12T02:15:26.929Z,36.4
2017-10-12T02:16:26.881Z,36.4
2017-10-12T02:17:26.932Z,36.3
2017-10-12T02:18:27.089Z,36.4
2017-10-12T02:19:27.177Z,36.4
2017-10-12T02:20:27.035Z,36.4
2017-10-12T02:21:27.061Z,36.3
2017-10-12T02:22:27.146Z,36.3
2017-10-12T02:23:27.311Z,36.3
2017-10-12T02:24:27.175Z,36.3
2017-10-12T02:25:27.264Z,36.4
2017-10-12T02:26:27.341Z,36.4
2017-10-12T02:27:27.444Z,36.4
2017-10-12T02:28:27.593Z,36.4
2017-10-12T02:29:27.778Z,36.4
2017-10-12T02:30:27.625Z,36.4
2017-10-12T02:31:27.833Z,36.4
2017-10-12T02:32:27.797Z,36.4
2017-10-12T02:33:27.992Z,36.4
2017-10-12T02:34:27.914Z,36.4
2017-10-12T02:35:28.141Z,36.4
2017-10-12T02:36:28.225Z,36.4
2017-10-12T02:37:28.239Z,36.4
2017-10-12T02:38:28.210Z,36.4
2017-10-12T02:39:28.161Z,36.4
2017-10-12T02:40:28.423Z,36.4
2017-10-12T02:41:28.359Z,36.4
2017-10-12T02:42:28.486Z,36.4
2017-10-12T02:43:28.508Z,36.4
2017-10-12T02:44:28.555Z,36.4
2017-10-12T02:45:28.620Z,36.4
2017-10-12T02:46:28.612Z,36.3
2017-10-12T02:47:28.481Z,36.4
2017-10-12T02:48:28.789Z,36.4
2017-10-12T02:49:28.569Z,36.4
2017-10-12T02:50:28.568Z,36.4
2017-10-12T02:51:28.637Z,36.4
2017-10-12T02:52:28.695Z,36.4
2017-10-12T02:53:28.802Z,36.4
2017-10-12T02:54:28.923Z,36.4
2017-10-12T02:55:28.892Z,36.4
2017-10-12T02:56:28.982Z,36.4
2017-10-12T02:57:28.907Z,36.4
2017-10-12T02:58:29.076Z,36.4
2017-10-12T02:59:29.067Z,36.4
2017-10-12T03:00:29.151Z,36.4
2017-10-12T03:01:29.509Z,36.4
2017-10-12T03:02:29.959Z,36.4
2017-10-12T03:03:29.228Z,36.4
2017-10-12T03:04:29.131Z,36.3
2017-10-12T03:05:29.163Z,36.3
2017-10-12T03:06:29.255Z,36.3
2017-10-12T03:07:29.315Z,36.3
2017-10-12T03:08:29.529Z,36.3
2017-10-12T03:09:29.470Z,36.3
2017-10-12T03:10:29.537Z,36.3
2017-10-12T03:11:29.625Z,36.3
2017-10-12T03:12:29.734Z,36.3
2017-10-12T03:13:29.773Z,36.3
2017-10-12T03:14:29.773Z,36.3
2017-10-12T03:15:30.007Z,36.3
2017-10-12T03:16:29.942Z,36.3
2017-10-12T03:17:29.982Z,36.4
2017-10-12T03:18:30.210Z,36.4
2017-10-12T03:19:30.111Z,36.4
2017-10-12T03:20:30.564Z,36.4
2017-10-12T03:21:30.365Z,36.4
2017-10-12T03:22:30.392Z,36.4
2017-10-12T03:23:30.262Z,36.4
2017-10-12T03:24:32.031Z,36.4
2017-10-12T03:25:30.381Z,36.4
2017-10-12T03:26:30.414Z,36.4
2017-10-12T03:27:30.417Z,36.4
2017-10-12T03:28:31.317Z,36.4
2017-10-12T03:29:30.595Z,36.4
2017-10-12T03:30:30.669Z,36.4
2017-10-12T03:31:30.891Z,36.4
2017-10-12T03:32:30.957Z,36.4
2017-10-12T03:33:30.892Z,36.3
2017-10-12T03:34:31.062Z,36.3
2017-10-12T03:35:31.121Z,36.3
2017-10-12T03:36:31.142Z,36.5
2017-10-12T03:37:31.217Z,36.7
2017-10-12T03:38:31.156Z,36.8
2017-10-12T03:39:31.367Z,36.7
2017-10-12T03:40:31.312Z,36.7
2017-10-12T03:41:31.343Z,36.7
2017-10-12T03:42:31.446Z,36.7
2017-10-12T03:43:31.304Z,36.7
2017-10-12T03:44:31.539Z,36.8
2017-10-12T03:45:31.415Z,36.8
2017-10-12T03:46:31.630Z,36.8
2017-10-12T03:47:31.800Z,36.8
2017-10-12T03:48:31.716Z,36.8
2017-10-12T03:49:31.771Z,36.8
2017-10-12T03:50:31.845Z,36.8
2017-10-12T03:51:31.746Z,36.8
2017-10-12T03:52:31.999Z,36.8
2017-10-12T03:53:31.993Z,36.8
2017-10-12T03:54:31.970Z,36.8
2017-10-12T03:55:32.056Z,36.8
2017-10-12T03:56:32.063Z,36.8
2017-10-12T03:57:32.244Z,36.8
2017-10-12T03:58:32.255Z,36.7
2017-10-12T03:59:32.385Z,36.7
2017-10-12T04:00:32.383Z,36.7
2017-10-12T04:01:32.269Z,36.7
2017-10-12T04:02:32.443Z,36.7
2017-10-12T04:03:32.337Z,36.7
2017-10-12T04:04:32.370Z,36.7
2017-10-12T04:05:32.469Z,36.7
2017-10-12T04:06:32.564Z,36.7
2017-10-12T04:07:32.622Z,36.7
2017-10-12T04:08:32.755Z,36.7
2017-10-12T04:09:32.647Z,36.7
2017-10-12T04:10:32.663Z,36.6
2017-10-12T04:11:32.744Z,36.6
2017-10-12T04:12:32.951Z,36.6
2017-10-12T04:13:32.851Z,36.6
2017-10-12T04:14:32.872Z,36.6
2017-10-12T04:15:33.064Z,36.6
2017-10-12T04:16:33.283Z,36.6
2017-10-12T04:17:33.011Z,36.6
2017-10-12T04:18:33.249Z,36.6
2017-10-12T04:19:33.089Z,36.6
2017-10-12T04:20:33.144Z,36.6
2017-10-12T04:21:33.326Z,36.6
2017-10-12T04:22:33.651Z,36.6
2017-10-12T04:23:33.357Z,36.6
2017-10-12T04:24:33.376Z,36.6
2017-10-12T04:25:33.437Z,36.6
2017-10-12T04:26:33.381Z,36.6
2017-10-12T04:27:33.380Z,36.6
2017-10-12T04:28:34.335Z,36.6
2017-10-12T04:29:33.546Z,36.6
2017-10-12T04:30:33.708Z,36.6
2017-10-12T04:31:33.640Z,36.6
2017-10-12T04:32:33.689Z,36.6
2017-10-12T04:33:33.716Z,36.6
2017-10-12T04:34:34.151Z,36.6
2017-10-12T04:35:33.743Z,36.6
2017-10-12T04:36:33.932Z,36.6
2017-10-12T04:37:33.949Z,36.6
2017-10-12T04:38:33.837Z,36.6
2017-10-12T04:39:33.927Z,36.6
2017-10-12T04:40:34.281Z,36.6
2017-10-12T04:41:34.153Z,36.6
2017-10-12T04:42:34.144Z,36.6
2017-10-12T04:43:34.219Z,36.6
2017-10-12T04:44:34.222Z,36.6
2017-10-12T04:45:34.926Z,36.6
2017-10-12T04:46:34.301Z,36.6
2017-10-12T04:47:34.411Z,36.6
2017-10-12T04:48:34.460Z,36.6
2017-10-12T04:49:34.554Z,36.6
2017-10-12T04:50:34.619Z,36.6
2017-10-12T04:51:34.595Z,36.6
2017-10-12T04:52:34.700Z,36.6
2017-10-12T04:53:34.784Z,36.6
2017-10-12T04:54:34.780Z,36.6
2017-10-12T04:55:34.871Z,36.5
2017-10-12T04:56:34.959Z,36.5
2017-10-12T04:57:34.896Z,36.5
2017-10-12T04:58:35.144Z,36.6
2017-10-12T04:59:35.051Z,36.6
2017-10-12T05:00:35.241Z,36.6
2017-10-12T05:01:36.030Z,36.5
2017-10-12T05:02:35.308Z,36.5
2017-10-12T05:03:35.651Z,36.5
2017-10-12T05:04:35.533Z,36.5
2017-10-12T05:05:35.521Z,36.5
2017-10-12T05:06:35.536Z,36.5
2017-10-12T05:07:35.567Z,36.6
2017-10-12T05:08:35.633Z,36.5
2017-10-12T05:09:35.637Z,36.5
2017-10-12T05:10:35.631Z,36.5
2017-10-12T05:11:35.698Z,36.5
2017-10-12T05:12:35.710Z,36.4
2017-10-12T05:13:35.730Z,36.4
2017-10-12T05:14:35.898Z,36.4
2017-10-12T05:15:36.608Z,36.4
2017-10-12T05:16:35.882Z,36.3
2017-10-12T05:17:35.859Z,36.3
2017-10-12T05:18:35.914Z,36.2
2017-10-12T05:19:36.076Z,36.2
2017-10-12T05:20:36.119Z,36.2
2017-10-12T05:21:36.193Z,36.2
2017-10-12T05:22:36.157Z,36.2
2017-10-12T05:23:36.229Z,36.2
2017-10-12T05:24:36.391Z,36.2
2017-10-12T05:25:36.440Z,36.2
2017-10-12T05:26:36.476Z,36.2
2017-10-12T05:27:36.591Z,36.1
2017-10-12T05:28:36.459Z,36.1
2017-10-12T05:29:36.615Z,36.1
2017-10-12T05:30:36.563Z,36.1
2017-10-12T05:31:36.765Z,36.1
2017-10-12T05:32:36.920Z,36.1
2017-10-12T05:33:36.823Z,36.1
2017-10-12T05:34:36.779Z,36.1
2017-10-12T05:35:36.831Z,36.1
2017-10-12T05:36:36.956Z,36.1
2017-10-12T05:37:37.008Z,36.1
2017-10-12T05:38:37.083Z,36.1
2017-10-12T05:39:37.475Z,36.1
2017-10-12T05:40:37.283Z,36
2017-10-12T05:41:37.448Z,36
2017-10-12T05:42:37.584Z,36
2017-10-12T05:43:37.383Z,36
2017-10-12T05:44:37.386Z,36
2017-10-12T05:45:37.602Z,36
2017-10-12T05:46:37.498Z,36
2017-10-12T05:47:37.554Z,36
2017-10-12T05:48:37.656Z,36
2017-10-12T05:49:37.788Z,36
2017-10-12T05:50:39.068Z,36
2017-10-12T05:51:38.971Z,36
2017-10-12T05:52:37.937Z,36
2017-10-12T05:53:37.995Z,36
2017-10-12T05:54:38.784Z,36
2017-10-12T05:55:38.033Z,36
2017-10-12T05:56:37.894Z,36
2017-10-12T05:57:38.005Z,36
2017-10-12T05:58:38.645Z,36
2017-10-12T05:59:38.240Z,36
2017-10-12T06:00:38.341Z,36
2017-10-12T06:01:38.317Z,36
2017-10-12T06:02:38.464Z,36
2017-10-12T06:03:39.439Z,36
2017-10-12T06:04:38.513Z,36
2017-10-12T06:05:38.416Z,35.9
2017-10-12T06:06:38.532Z,35.9
2017-10-12T06:07:38.587Z,35.9
2017-10-12T06:08:38.685Z,35.9
2017-10-12T06:09:38.541Z,35.9
2017-10-12T06:10:38.857Z,35.9
2017-10-12T06:11:38.765Z,35.9
2017-10-12T06:12:38.764Z,35.9
2017-10-12T06:13:38.919Z,35.9
2017-10-12T06:14:39.094Z,35.8
2017-10-12T06:15:38.934Z,35.6
2017-10-12T06:16:39.213Z,35.5
2017-10-12T06:17:39.048Z,35.5
2017-10-12T06:18:39.090Z,35.6
2017-10-12T06:19:39.697Z,35.7
2017-10-12T06:20:39.064Z,35.7
2017-10-12T06:21:39.396Z,35.8
2017-10-12T06:22:39.605Z,35.9
2017-10-12T06:23:39.366Z,35.9
2017-10-12T06:24:39.471Z,36
2017-10-12T06:25:39.493Z,36
2017-10-12T06:26:39.431Z,36
2017-10-12T06:27:39.445Z,36.1
2017-10-12T06:28:39.973Z,36.1
2017-10-12T06:29:39.745Z,36.1
2017-10-12T06:30:39.552Z,36.1
2017-10-12T06:31:40.454Z,36.1
2017-10-12T06:32:39.775Z,36.1
2017-10-12T06:33:41.522Z,36.1
2017-10-12T06:34:40.412Z,36.1
2017-10-12T06:35:40.012Z,36.1
2017-10-12T06:36:40.457Z,36
2017-10-12T06:37:40.027Z,36
2017-10-12T06:38:39.942Z,36.1
2017-10-12T06:39:40.026Z,36.1
2017-10-12T06:40:40.269Z,36.1
2017-10-12T06:41:40.236Z,36.1
2017-10-12T06:42:40.305Z,36.1
2017-10-12T06:43:40.347Z,36.1
2017-10-12T06:44:40.565Z,36.1
2017-10-12T06:45:40.273Z,36.1
2017-10-12T06:46:40.781Z,36.1
2017-10-12T06:47:40.558Z,36.1
2017-10-12T06:48:41.981Z,36
2017-10-12T06:49:40.535Z,36
2017-10-12T06:50:40.612Z,36
2017-10-12T06:51:40.716Z,36.1
2017-10-12T06:52:40.954Z,36
2017-10-12T06:53:40.634Z,36
2017-10-12T06:54:40.774Z,36
2017-10-12T06:55:40.746Z,36
2017-10-12T06:56:40.988Z,36
2017-10-12T06:57:40.849Z,36.1
2017-10-12T06:58:41.187Z,36.1
2017-10-12T06:59:40.877Z,36.1
2017-10-12T07:00:41.046Z,36.2
2017-10-12T07:01:41.022Z,36.2
2017-10-12T07:02:41.095Z,36.3
2017-10-12T07:03:41.320Z,36.3
2017-10-12T07:04:41.718Z,36.3
2017-10-12T07:05:41.258Z,36.4
2017-10-12T07:06:41.287Z,36.4
2017-10-12T07:07:41.352Z,36.4
2017-10-12T07:08:41.676Z,36.4
2017-10-12T07:09:41.536Z,36.4
2017-10-12T07:10:41.861Z,36.4
2017-10-12T07:11:41.668Z,36.4
2017-10-12T07:12:41.536Z,36.4
2017-10-12T07:13:41.851Z,36.4
2017-10-12T07:14:41.755Z,36.4
2017-10-12T07:15:41.828Z,36.5
2017-10-12T07:16:42.148Z,36.5
2017-10-12T07:17:41.895Z,36.5
2017-10-12T07:18:41.949Z,36.5
2017-10-12T07:19:41.966Z,36.5
2017-10-12T07:20:41.940Z,36.4
2017-10-12T07:21:41.970Z,36.5
2017-10-12T07:22:42.276Z,36.5
2017-10-12T07:23:42.168Z,36.5
2017-10-12T07:24:42.075Z,36.5
2017-10-12T07:25:42.315Z,36.5
2017-10-12T07:26:42.354Z,36.5
2017-10-12T07:27:43.024Z,36.5
2017-10-12T07:28:42.601Z,36.5
2017-10-12T07:29:43.476Z,36.5
2017-10-12T07:30:42.527Z,36.4
2017-10-12T07:31:42.397Z,36.4
2017-10-12T07:32:42.635Z,36.4
2017-10-12T07:33:42.451Z,36.2
2017-10-12T07:34:42.768Z,36
2017-10-12T07:35:42.451Z,35.9
2017-10-12T07:36:42.655Z,35.8
2017-10-12T07:37:42.504Z,35.8
2017-10-12T07:38:42.738Z,35.7
2017-10-12T07:39:42.849Z,35.8
2017-10-12T07:40:43.100Z,35.7
2017-10-12T07:41:42.863Z,35.7
2017-10-12T07:42:42.903Z,35.7
2017-10-12T07:43:43.056Z,35.7
2017-10-12T07:44:42.889Z,35.8
2017-10-12T07:45:42.916Z,35.8
2017-10-12T07:46:43.203Z,36
2017-10-12T07:47:42.996Z,35.9
2017-10-12T07:48:43.523Z,35.9
2017-10-12T07:49:43.726Z,35.9
2017-10-12T07:50:44.033Z,36
2017-10-12T07:51:43.442Z,36.1
2017-10-12T07:52:43.672Z,36.1
2017-10-12T07:53:43.655Z,36.1
2017-10-12T07:54:45.054Z,36.1
2017-10-12T07:55:43.500Z,36.1
2017-10-12T07:56:43.962Z,36.1
2017-10-12T07:57:43.869Z,36.2
2017-10-12T07:58:44.063Z,36.3
2017-10-12T07:59:43.518Z,36.3
2017-10-12T08:00:43.816Z,36.4
2017-10-12T08:01:43.884Z,36.3
2017-10-12T08:02:43.713Z,36.3
2017-10-12T08:03:43.985Z,36.3
2017-10-12T08:04:44.305Z,36.3
2017-10-12T08:05:44.332Z,36.2
2017-10-12T08:06:44.000Z,36.1
2017-10-12T08:07:43.928Z,36.2
2017-10-12T08:08:43.973Z,36.2
2017-10-12T08:09:44.083Z,36.3
2017-10-12T08:10:44.532Z,36.3
2017-10-12T08:11:44.578Z,36.3
2017-10-12T08:12:44.462Z,36.4
2017-10-12T08:13:44.959Z,36.5
2017-10-12T08:14:45.477Z,36.6
2017-10-12T08:15:45.487Z,36.6
2017-10-12T08:16:44.665Z,36.6
2017-10-12T08:17:44.706Z,36.6
2017-10-12T08:18:44.731Z,36.3
2017-10-12T08:19:44.763Z,36.3
2017-10-12T08:20:45.478Z,36.3
2017-10-12T08:21:44.831Z,36.1
2017-10-12T08:22:45.254Z,36
2017-10-12T08:23:44.841Z,36
2017-10-12T08:24:45.011Z,36
2017-10-12T08:25:44.809Z,36
2017-10-12T08:26:45.079Z,36
2017-10-12T08:27:44.926Z,36.1
2017-10-12T08:28:45.261Z,36
2017-10-12T08:29:45.269Z,36
2017-10-12T08:30:45.289Z,36.1
2017-10-12T08:31:45.128Z,36
2017-10-12T08:32:45.216Z,36
2017-10-12T08:33:45.463Z,35.9
2017-10-12T08:34:45.653Z,35.9
2017-10-12T08:35:45.377Z,35.8
2017-10-12T08:36:45.324Z,35.7
2017-10-12T08:37:45.545Z,35.7
2017-10-12T08:38:45.471Z,35.6
2017-10-12T08:39:45.811Z,35.6
2017-10-12T08:40:45.795Z,35.6
2017-10-12T08:41:45.914Z,35.5
2017-10-12T08:42:45.749Z,35.5
2017-10-12T08:43:45.649Z,35.4
2017-10-12T08:44:45.877Z,35.3
2017-10-12T08:45:45.614Z,35.1
2017-10-12T08:46:46.013Z,35
2017-10-12T08:47:45.812Z,35
2017-10-12T08:48:46.201Z,34.9
2017-10-12T08:49:46.009Z,34.9
2017-10-12T08:50:46.088Z,34.8
2017-10-12T08:51:46.175Z,34.7
2017-10-12T08:52:46.363Z,34.6
2017-10-12T08:53:46.005Z,34.6
2017-10-12T08:54:46.237Z,34.6
2017-10-12T08:55:46.300Z,34.6
2017-10-12T08:56:46.246Z,34.6
2017-10-12T08:57:46.219Z,34.7
2017-10-12T08:58:46.561Z,34.8
2017-10-12T08:59:46.650Z,34.8
2017-10-12T09:00:46.756Z,34.8
2017-10-12T09:01:46.535Z,34.9
2017-10-12T09:02:46.716Z,34.9
2017-10-12T09:03:46.493Z,34.8
2017-10-12T09:04:46.850Z,35
2017-10-12T09:05:46.720Z,35
2017-10-12T09:06:46.653Z,35
2017-10-12T09:07:46.701Z,35
2017-10-12T09:08:46.980Z,34.9
2017-10-12T09:09:46.785Z,34.9
2017-10-12T09:10:47.224Z,34.9
2017-10-12T09:11:46.930Z,34.9
2017-10-12T09:12:46.918Z,35
2017-10-12T09:13:46.997Z,35.1
2017-10-12T09:14:47.033Z,35.1
2017-10-12T09:15:46.983Z,35.1
2017-10-12T09:16:48.186Z,35.2
2017-10-12T09:17:47.167Z,35.2
2017-10-12T09:18:47.309Z,35.2
2017-10-12T09:19:47.145Z,35.2
2017-10-12T09:20:47.285Z,35.3
2017-10-12T09:21:47.292Z,35.3
2017-10-12T09:22:47.853Z,35.4
2017-10-12T09:23:47.538Z,35.5
2017-10-12T09:24:48.288Z,35.5
2017-10-12T09:25:48.567Z,35.5
2017-10-12T09:26:47.500Z,35.5
2017-10-12T09:27:47.503Z,35.5
2017-10-12T09:28:47.843Z,35.5
2017-10-12T09:29:47.451Z,35.5
2017-10-12T09:30:47.579Z,35.5
2017-10-12T09:31:47.568Z,35.5
2017-10-12T09:32:47.705Z,35.4
2017-10-12T09:33:49.524Z,35.3
2017-10-12T09:34:48.033Z,35.3
2017-10-12T09:35:47.950Z,35.3
2017-10-12T09:36:47.861Z,35.2
2017-10-12T09:37:47.943Z,35
2017-10-12T09:38:47.903Z,34.9
2017-10-12T09:39:47.958Z,34.9
2017-10-12T09:40:48.278Z,34.7
2017-10-12T09:41:48.221Z,34.4
2017-10-12T09:42:48.162Z,34.3
2017-10-12T09:43:48.220Z,34.1
2017-10-12T09:44:49.636Z,34.1
2017-10-12T09:45:49.252Z,34.1
2017-10-12T09:46:48.669Z,33.9
2017-10-12T09:47:48.403Z,33.8
2017-10-12T09:48:48.424Z,33.7
2017-10-12T09:49:49.021Z,33.6
2017-10-12T09:50:48.533Z,33.5
2017-10-12T09:51:48.730Z,33.3
2017-10-12T09:52:49.001Z,33.2
2017-10-12T09:53:48.928Z,33.1
2017-10-12T09:54:49.036Z,33
2017-10-12T09:55:48.968Z,32.9
2017-10-12T09:56:48.910Z,32.8
2017-10-12T09:57:49.395Z,32.7
2017-10-12T09:58:51.040Z,32.6
2017-10-12T09:59:50.533Z,32.6
2017-10-12T10:00:50.154Z,32.5
2017-10-12T10:01:49.452Z,32.4
2017-10-12T10:02:49.236Z,32.3
2017-10-12T10:03:49.230Z,32.2
2017-10-12T10:04:49.658Z,32.2
2017-10-12T10:05:50.469Z,32.1
2017-10-12T10:06:49.839Z,32.1
2017-10-12T10:07:49.766Z,32.1
2017-10-12T10:08:49.629Z,32.2
2017-10-12T10:09:49.924Z,32.2
2017-10-12T10:10:49.953Z,32.3
2017-10-12T10:11:52.276Z,32.4
2017-10-12T10:12:50.811Z,32.6
2017-10-12T10:13:49.832Z,32.8
2017-10-12T10:14:49.934Z,32.9
2017-10-12T10:15:50.725Z,32.9
2017-10-12T10:16:50.077Z,33.1
2017-10-12T10:17:49.934Z,33.2
2017-10-12T10:18:50.160Z,33.2
2017-10-12T10:19:50.170Z,33.1
2017-10-12T10:20:50.270Z,33.2
2017-10-12T10:21:50.446Z,33.2
2017-10-12T10:22:50.560Z,33.2
2017-10-12T10:23:50.407Z,33.2
2017-10-12T10:24:50.596Z,33.2
2017-10-12T10:25:50.645Z,33.2
2017-10-12T10:26:50.556Z,33.1
2017-10-12T10:27:51.060Z,33.1
2017-10-12T10:28:51.200Z,33
2017-10-12T10:29:50.819Z,33.1
2017-10-12T10:30:50.811Z,33.1
2017-10-12T10:31:50.707Z,33.1
2017-10-12T10:32:50.889Z,33.2
2017-10-12T10:33:50.746Z,33.2
2017-10-12T10:34:51.006Z,33.2
2017-10-12T10:35:51.012Z,33.2
2017-10-12T10:36:51.061Z,33.1
2017-10-12T10:37:51.389Z,33.1
2017-10-12T10:38:51.172Z,33.1
2017-10-12T10:39:51.127Z,33
2017-10-12T10:40:51.214Z,33
2017-10-12T10:41:51.145Z,33
2017-10-12T10:42:51.389Z,33
2017-10-12T10:43:51.393Z,33
2017-10-12T10:44:51.350Z,32.9
2017-10-12T10:45:51.405Z,32.9
2017-10-12T10:46:51.514Z,32.9
2017-10-12T10:47:51.680Z,32.8
2017-10-12T10:48:51.753Z,32.8
2017-10-12T10:49:51.688Z,32.7
2017-10-12T10:50:51.697Z,32.7
2017-10-12T10:51:51.852Z,32.7
2017-10-12T10:52:52.123Z,32.7
2017-10-12T10:53:52.376Z,32.7
2017-10-12T10:54:51.971Z,32.8
2017-10-12T10:55:52.484Z,32.8
2017-10-12T10:56:52.117Z,32.8
2017-10-12T10:57:52.154Z,32.8
2017-10-12T10:58:53.693Z,32.7
2017-10-12T10:59:52.190Z,32.7
2017-10-12T11:00:52.369Z,32.7
2017-10-12T11:01:52.619Z,32.6
2017-10-12T11:02:53.106Z,32.7
2017-10-12T11:03:52.596Z,32.8
2017-10-12T11:04:52.430Z,32.8
2017-10-12T11:05:52.416Z,32.8
2017-10-12T11:06:52.483Z,32.9
2017-10-12T11:07:52.583Z,32.9
2017-10-12T11:08:52.768Z,32.8
2017-10-12T11:09:52.689Z,32.9
2017-10-12T11:10:52.595Z,32.8
2017-10-12T11:11:52.672Z,32.8
2017-10-12T11:12:52.661Z,32.8
2017-10-12T11:13:52.829Z,32.7
2017-10-12T11:14:52.984Z,32.7
2017-10-12T11:15:52.854Z,32.7
2017-10-12T11:16:52.964Z,32.7
2017-10-12T11:17:53.242Z,32.6
2017-10-12T11:18:53.167Z,32.6
2017-10-12T11:19:53.267Z,32.6
2017-10-12T11:20:53.311Z,32.6
2017-10-12T11:21:53.347Z,32.6
2017-10-12T11:22:54.661Z,32.6
2017-10-12T11:23:53.516Z,32.7
2017-10-12T11:24:53.362Z,32.7
2017-10-12T11:25:53.572Z,32.7
2017-10-12T11:26:53.586Z,32.7
2017-10-12T11:27:53.695Z,32.8
2017-10-12T11:28:53.817Z,32.7
2017-10-12T11:29:53.797Z,32.6
2017-10-12T11:30:53.707Z,32.6
2017-10-12T11:31:53.981Z,32.6
2017-10-12T11:32:53.964Z,32.7
2017-10-12T11:33:54.234Z,32.6
2017-10-12T11:34:53.824Z,32.6
2017-10-12T11:35:54.070Z,32.6
2017-10-12T11:36:53.985Z,32.6
2017-10-12T11:37:54.287Z,32.6
2017-10-12T11:38:54.250Z,32.7
2017-10-12T11:39:54.272Z,32.6
2017-10-12T11:40:54.358Z,32.7
2017-10-12T11:41:54.293Z,32.7
2017-10-12T11:42:54.503Z,32.8
2017-10-12T11:43:54.563Z,32.9
2017-10-12T11:44:54.722Z,32.8
2017-10-12T11:45:54.638Z,32.9
2017-10-12T11:46:54.761Z,32.9
2017-10-12T11:47:55.079Z,32.9
2017-10-12T11:48:54.818Z,33
2017-10-12T11:49:54.849Z,33
2017-10-12T11:50:54.720Z,33.1
2017-10-12T11:51:54.925Z,33.2
2017-10-12T11:52:55.318Z,33.1
2017-10-12T11:53:55.049Z,33.1
2017-10-12T11:54:55.062Z,33.2
2017-10-12T11:55:55.089Z,33.2
2017-10-12T11:56:55.057Z,33.2
2017-10-12T11:57:55.687Z,33.2
2017-10-12T11:58:55.409Z,33.2
2017-10-12T11:59:55.421Z,33.2
2017-10-12T12:00:55.467Z,33.2
2017-10-12T12:01:56.497Z,33.2
2017-10-12T12:02:55.835Z,33.2
2017-10-12T12:03:55.671Z,33.2
2017-10-12T12:04:56.322Z,33.1
2017-10-12T12:05:55.754Z,33.1
2017-10-12T12:06:55.902Z,33.1
2017-10-12T12:07:56.188Z,33.2
2017-10-12T12:08:55.886Z,33.2
2017-10-12T12:09:56.043Z,33.2
2017-10-12T12:10:55.971Z,33.2
2017-10-12T12:11:56.260Z,33.1
2017-10-12T12:12:56.102Z,33.2
2017-10-12T12:13:56.101Z,33.2
2017-10-12T12:14:56.244Z,33.2
2017-10-12T12:15:56.356Z,33.2
2017-10-12T12:16:56.471Z,33.2
2017-10-12T12:17:56.521Z,33.1
2017-10-12T12:18:56.965Z,33.1
2017-10-12T12:19:56.534Z,33
2017-10-12T12:20:56.455Z,33
2017-10-12T12:21:56.564Z,33
2017-10-12T12:22:56.842Z,32.9
2017-10-12T12:23:56.887Z,32.7
2017-10-12T12:24:56.725Z,32.7
2017-10-12T12:25:56.811Z,32.6
2017-10-12T12:26:56.768Z,32.5
2017-10-12T12:27:56.822Z,32.5
2017-10-12T12:28:56.936Z,32.5
2017-10-12T12:29:56.930Z,32.5
2017-10-12T12:30:57.063Z,32.5
2017-10-12T12:31:57.026Z,32.4
2017-10-12T12:32:57.191Z,32.4
2017-10-12T12:33:56.925Z,32.3
2017-10-12T12:34:57.067Z,32.4
2017-10-12T12:35:57.038Z,32.3
2017-10-12T12:36:57.200Z,32.3
2017-10-12T12:37:57.167Z,32.3
2017-10-12T12:38:57.382Z,32.3
2017-10-12T12:39:57.345Z,32.3
2017-10-12T12:40:57.387Z,32.4
2017-10-12T12:41:57.486Z,32.5
2017-10-12T12:42:57.450Z,32.4
2017-10-12T12:43:57.637Z,32.4
2017-10-12T12:44:57.536Z,32.4
2017-10-12T12:45:57.509Z,32.4
2017-10-12T12:46:58.079Z,32.4
2017-10-12T12:47:57.916Z,32.4
2017-10-12T12:48:57.828Z,32.4
2017-10-12T12:49:57.726Z,32.5
2017-10-12T12:50:57.962Z,32.4
2017-10-12T12:51:57.974Z,32.4
2017-10-12T12:52:57.951Z,32.4
2017-10-12T12:53:58.116Z,32.4
2017-10-12T12:54:58.067Z,32.4
2017-10-12T12:55:58.158Z,32.3
2017-10-12T12:56:58.090Z,32.3
2017-10-12T12:57:58.199Z,32.3
2017-10-12T12:58:58.387Z,32.3
2017-10-12T12:59:58.258Z,32.3
2017-10-12T13:00:58.392Z,32.2
2017-10-12T13:01:58.585Z,32.2
2017-10-12T13:02:58.542Z,32.1
2017-10-12T13:03:58.694Z,32.1
2017-10-12T13:04:58.775Z,32.2
2017-10-12T13:05:58.626Z,32.2
2017-10-12T13:06:58.738Z,32.2
2017-10-12T13:07:58.887Z,32.2
2017-10-12T13:08:58.986Z,32.2
2017-10-12T13:09:58.978Z,32.2
2017-10-12T13:10:59.159Z,32.1
2017-10-12T13:11:59.185Z,32.1
2017-10-12T13:12:59.167Z,32.1
2017-10-12T13:13:58.960Z,32.1
2017-10-12T13:14:59.118Z,32.1
2017-10-12T13:15:59.185Z,32
2017-10-12T13:16:59.398Z,32
2017-10-12T13:17:59.278Z,32
2017-10-12T13:18:59.318Z,32
2017-10-12T13:19:59.263Z,32
2017-10-12T13:20:59.604Z,32
2017-10-12T13:21:59.465Z,32
2017-10-12T13:22:59.573Z,32
2017-10-12T13:23:59.546Z,32